createdAt,value
2024-02-07T00:01:27.644Z,12.20
2024-02-07T00:04:14.985Z,9.98
2024-02-07T00:07:02.343Z,9.20
2024-02-07T00:09:49.570Z,8.38
2024-02-07T00:12:36.793Z,11.77
2024-02-07T00:15:24.645Z,13.48
2024-02-07T00:18:11.825Z,10.02
2024-02-07T00:20:59.214Z,8.10
2024-02-07T00:23:46.505Z,11.25
2024-02-07T00:26:37.133Z,12.32
2024-02-07T00:29:24.378Z,12.40
2024-02-07T00:32:11.584Z,10.27
2024-02-07T00:34:58.874Z,11.50
2024-02-07T00:37:46.054Z,8.90
2024-02-07T00:40:34.443Z,10.00
2024-02-07T00:43:21.766Z,12.45
2024-02-07T00:46:08.984Z,3.80
2024-02-07T00:48:57.686Z,1.67
2024-02-07T00:51:45.141Z,3.67
2024-02-07T00:54:32.392Z,1.40
2024-02-07T00:57:19.566Z,1.45
2024-02-07T01:00:08.657Z,1.35
2024-02-07T01:02:56.443Z,2.60
2024-02-07T01:05:43.746Z,1.70
2024-02-07T01:08:30.956Z,3.25
2024-02-07T01:11:18.093Z,3.72
2024-02-07T01:14:05.300Z,3.67
2024-02-07T01:16:52.506Z,5.07
2024-02-07T01:19:40.207Z,2.95
2024-02-07T01:22:27.455Z,3.72
2024-02-07T01:25:14.872Z,2.25
2024-02-07T01:28:02.057Z,3.80
2024-02-07T01:30:49.249Z,3.67
2024-02-07T01:33:36.919Z,2.40
2024-02-07T01:36:25.578Z,1.52
2024-02-07T01:39:12.782Z,4.47
2024-02-07T01:42:00.539Z,2.50
2024-02-07T01:44:48.004Z,3.63
2024-02-07T01:47:35.276Z,4.82
2024-02-07T01:50:23.073Z,3.95
2024-02-07T01:53:12.350Z,2.05
2024-02-07T01:56:01.765Z,4.55
2024-02-07T01:58:49.385Z,5.20
2024-02-07T02:01:40.183Z,9.57
2024-02-07T02:04:28.126Z,6.22
2024-02-07T02:07:15.547Z,5.05
2024-02-07T02:10:02.874Z,7.97
2024-02-07T02:12:50.849Z,5.43
2024-02-07T02:15:38.085Z,3.20
2024-02-07T02:18:25.332Z,4.70
2024-02-07T02:21:20.603Z,4.05
2024-02-07T02:24:45.262Z,8.15
2024-02-07T02:28:32.480Z,7.15
2024-02-07T02:31:21.381Z,4.32
2024-02-07T02:34:09.035Z,3.08
2024-02-07T02:36:56.755Z,4.38
2024-02-07T02:39:44.322Z,9.00
2024-02-07T02:42:31.483Z,5.53
2024-02-07T02:45:18.912Z,8.18
2024-02-07T02:48:08.732Z,7.90
2024-02-07T02:50:57.142Z,5.47
2024-02-07T02:53:45.129Z,4.80
2024-02-07T02:56:32.572Z,7.47
2024-02-07T02:59:21.764Z,4.93
2024-02-07T03:02:11.790Z,5.10
2024-02-07T03:05:01.998Z,6.72
2024-02-07T03:08:06.957Z,5.25
2024-02-07T03:10:54.984Z,4.90
2024-02-07T03:13:42.306Z,8.68
2024-02-07T03:16:30.206Z,5.28
2024-02-07T03:19:17.652Z,4.07
2024-02-07T03:22:04.981Z,4.10
2024-02-07T03:24:57.220Z,7.15
2024-02-07T03:27:52.071Z,3.97
2024-02-07T03:30:39.342Z,7.68
2024-02-07T03:33:26.733Z,6.47
2024-02-07T03:36:14.211Z,4.38
2024-02-07T03:39:01.615Z,10.20
2024-02-07T03:41:49.597Z,9.98
2024-02-07T03:44:38.243Z,10.10
2024-02-07T03:47:26.216Z,8.15
2024-02-07T03:50:18.081Z,4.30
2024-02-07T03:53:06.280Z,7.03
2024-02-07T03:55:53.571Z,6.10
2024-02-07T03:58:42.498Z,9.52
2024-02-07T04:01:31.123Z,8.80
2024-02-07T04:04:21.635Z,3.88
2024-02-07T04:07:09.155Z,5.53
2024-02-07T04:09:56.493Z,8.20
2024-02-07T04:12:43.568Z,6.22
2024-02-07T04:15:49.160Z,3.67
2024-02-07T04:18:55.111Z,4.53
2024-02-07T04:22:00.963Z,3.40
2024-02-07T04:25:06.922Z,7.90
2024-02-07T04:28:12.790Z,3.90
2024-02-07T04:31:18.721Z,4.72
2024-02-07T04:34:24.322Z,8.90
2024-02-07T04:37:29.954Z,3.08
2024-02-07T04:40:35.778Z,7.40
2024-02-07T04:43:41.605Z,6.97
2024-02-07T04:46:47.570Z,5.07
2024-02-07T04:49:53.415Z,8.98
2024-02-07T04:52:59.235Z,7.78
2024-02-07T04:56:05.035Z,9.02
2024-02-07T04:59:11.145Z,5.22
2024-02-07T05:02:16.793Z,2.60
2024-02-07T05:05:22.693Z,4.53
2024-02-07T05:08:28.305Z,6.38
2024-02-07T05:11:34.265Z,8.75
2024-02-07T05:14:40.025Z,4.60
2024-02-07T05:17:27.332Z,4.28
2024-02-07T05:20:14.799Z,4.57
2024-02-07T05:23:02.108Z,7.78
2024-02-07T05:25:49.624Z,5.90
2024-02-07T05:28:38.223Z,7.78
2024-02-07T05:31:25.962Z,6.25
2024-02-07T05:34:13.509Z,6.22
2024-02-07T05:37:02.715Z,5.55
2024-02-07T05:39:49.846Z,5.45
2024-02-07T05:42:37.019Z,6.35
2024-02-07T05:45:24.226Z,7.43
2024-02-07T05:48:11.471Z,9.73
2024-02-07T05:50:58.643Z,2.67
2024-02-07T05:53:45.909Z,6.50
2024-02-07T05:56:33.143Z,4.68
2024-02-07T05:59:21.529Z,4.63
2024-02-07T06:02:08.772Z,3.08
2024-02-07T06:04:58.565Z,6.10
2024-02-07T06:07:46.506Z,8.10
2024-02-07T06:10:35.420Z,8.18
2024-02-07T06:13:23.042Z,5.00
2024-02-07T06:16:10.281Z,7.97
2024-02-07T06:18:57.970Z,8.00
2024-02-07T06:21:45.160Z,5.88
2024-02-07T06:24:33.117Z,4.68
2024-02-07T06:27:20.312Z,7.82
2024-02-07T06:30:08.294Z,9.32
2024-02-07T06:32:55.581Z,6.28
2024-02-07T06:35:43.569Z,9.77
2024-02-07T06:38:30.842Z,5.25
2024-02-07T06:41:18.032Z,4.57
2024-02-07T06:44:05.654Z,9.82
2024-02-07T06:46:53.039Z,7.13
2024-02-07T06:49:41.303Z,9.20
2024-02-07T06:52:28.652Z,6.22
2024-02-07T06:55:16.007Z,7.82
2024-02-07T06:58:03.290Z,7.85
2024-02-07T07:00:50.621Z,8.63
2024-02-07T07:03:37.903Z,10.43
2024-02-07T07:06:25.187Z,8.68
2024-02-07T07:09:12.664Z,9.75
2024-02-07T07:11:59.809Z,4.57
2024-02-07T07:14:47.239Z,6.93
2024-02-07T07:17:34.438Z,5.30
2024-02-07T07:20:21.712Z,9.93
2024-02-07T07:23:15.687Z,8.43
2024-02-07T07:26:04.311Z,8.27
2024-02-07T07:28:55.454Z,7.20
2024-02-07T07:31:42.789Z,4.97
2024-02-07T07:34:30.052Z,6.77
2024-02-07T07:37:19.292Z,5.25
2024-02-07T07:40:07.422Z,9.98
2024-02-07T07:42:54.628Z,7.68
2024-02-07T07:45:41.901Z,5.88
2024-02-07T07:48:29.163Z,9.48
2024-02-07T07:51:21.447Z,8.55
2024-02-07T07:54:08.817Z,8.38
2024-02-07T07:56:56.089Z,9.82
2024-02-07T07:59:43.244Z,9.73
2024-02-07T08:02:32.078Z,9.20
2024-02-07T08:05:19.474Z,5.68
2024-02-07T08:08:08.717Z,9.32
2024-02-07T08:10:56.183Z,8.80
2024-02-07T08:13:43.739Z,10.43
2024-02-07T08:16:31.044Z,7.47
2024-02-07T08:19:18.400Z,9.55
2024-02-07T08:22:05.630Z,12.25
2024-02-07T08:24:53.467Z,11.60
2024-02-07T08:27:40.646Z,8.25
2024-02-07T08:30:27.897Z,8.40
2024-02-07T08:33:15.353Z,10.80
2024-02-07T08:36:03.695Z,5.30
2024-02-07T08:38:50.963Z,10.48
2024-02-07T08:41:39.462Z,11.23
2024-02-07T08:44:26.696Z,10.10
2024-02-07T08:47:14.069Z,8.85
2024-02-07T08:50:01.225Z,10.02
2024-02-07T08:52:48.562Z,5.82
2024-02-07T08:55:35.866Z,13.98
2024-02-07T08:58:23.103Z,10.48
2024-02-07T09:01:10.467Z,9.13
2024-02-07T09:03:57.777Z,12.93
2024-02-07T09:06:46.584Z,6.63
2024-02-07T09:09:33.836Z,11.40
2024-02-07T09:12:20.952Z,13.18
2024-02-07T09:15:08.605Z,7.43
2024-02-07T09:17:55.824Z,10.13
2024-02-07T09:20:42.994Z,9.57
2024-02-07T09:23:30.176Z,10.73
2024-02-07T09:26:17.321Z,10.85
2024-02-07T09:29:04.685Z,9.02
2024-02-07T09:31:52.020Z,13.02
2024-02-07T09:34:45.854Z,11.85
2024-02-07T09:37:33.218Z,11.93
2024-02-07T09:40:24.758Z,9.10
2024-02-07T09:43:12.140Z,13.05
2024-02-07T09:46:00.823Z,8.52
2024-02-07T09:48:51.256Z,10.25
2024-02-07T09:51:42.486Z,10.18
2024-02-07T09:54:29.937Z,14.05
2024-02-07T09:57:19.118Z,11.75
2024-02-07T10:00:08.695Z,8.10
2024-02-07T10:02:57.222Z,11.63
2024-02-07T10:05:52.115Z,11.90
2024-02-07T10:08:41.210Z,9.23
2024-02-07T10:11:31.253Z,9.98
2024-02-07T10:14:19.043Z,11.10
2024-02-07T10:17:06.683Z,10.13
2024-02-07T10:19:54.731Z,10.32
2024-02-07T10:22:43.053Z,10.52
2024-02-07T10:25:30.546Z,11.30
2024-02-07T10:28:18.436Z,13.35
2024-02-07T10:31:06.306Z,12.10
2024-02-07T10:33:55.638Z,13.25
2024-02-07T10:36:42.974Z,15.05
2024-02-07T10:39:30.356Z,9.52
2024-02-07T10:42:18.520Z,10.68
2024-02-07T10:45:11.710Z,10.65
2024-02-07T10:47:59.067Z,9.30
2024-02-07T10:50:46.962Z,9.93
2024-02-07T10:53:34.602Z,16.45
2024-02-07T10:56:23.434Z,10.23
2024-02-07T10:59:12.966Z,9.07
2024-02-07T11:02:01.440Z,10.73
2024-02-07T11:04:51.623Z,10.18
2024-02-07T11:07:39.315Z,11.25
2024-02-07T11:10:26.830Z,14.38
2024-02-07T11:13:14.537Z,14.75
2024-02-07T11:16:05.455Z,7.93
2024-02-07T11:18:54.822Z,10.68
2024-02-07T11:21:43.995Z,12.07
2024-02-07T11:24:31.973Z,10.95
2024-02-07T11:27:19.415Z,14.52
2024-02-07T11:30:12.052Z,13.50
2024-02-07T11:33:00.010Z,10.02
2024-02-07T11:35:47.536Z,12.82
2024-02-07T11:38:38.781Z,16.13
2024-02-07T11:41:27.317Z,12.73
2024-02-07T11:44:18.493Z,12.02
2024-02-07T11:47:05.958Z,11.93
2024-02-07T11:50:13.272Z,13.38
2024-02-07T11:53:03.206Z,10.05
2024-02-07T11:55:50.766Z,14.95
2024-02-07T11:58:39.078Z,13.73
2024-02-07T12:01:28.662Z,13.10
2024-02-07T12:04:20.405Z,13.55
2024-02-07T12:07:10.492Z,12.55
2024-02-07T12:09:57.819Z,11.23
2024-02-07T12:12:45.224Z,14.30
2024-02-07T12:15:36.774Z,13.18
2024-02-07T12:18:24.137Z,13.15
2024-02-07T12:21:11.647Z,13.60
2024-02-07T12:23:59.132Z,14.63
2024-02-07T12:26:46.384Z,12.38
2024-02-07T12:29:33.629Z,18.25
2024-02-07T12:32:21.804Z,12.75
2024-02-07T12:35:09.170Z,14.52
2024-02-07T12:38:01.253Z,13.32
2024-02-07T12:40:53.984Z,15.50
2024-02-07T12:43:41.908Z,9.40
2024-02-07T12:46:29.117Z,20.80
2024-02-07T12:49:16.493Z,13.50
2024-02-07T12:52:04.696Z,10.50
2024-02-07T12:54:52.109Z,14.70
2024-02-07T12:57:39.349Z,17.42
2024-02-07T13:00:26.574Z,11.75
2024-02-07T13:03:14.056Z,11.25
2024-02-07T13:06:01.487Z,18.88
2024-02-07T13:08:52.515Z,14.65
2024-02-07T13:11:39.851Z,15.95
2024-02-07T13:14:27.040Z,16.77
2024-02-07T13:17:16.110Z,13.07
2024-02-07T13:20:07.199Z,19.85
2024-02-07T13:25:41.873Z,11.48
2024-02-07T13:28:29.206Z,16.90
2024-02-07T13:31:17.016Z,15.88
2024-02-07T13:34:06.263Z,12.55
2024-02-07T13:36:53.484Z,17.40
2024-02-07T13:39:40.689Z,11.60
2024-02-07T13:42:27.967Z,12.38
2024-02-07T13:45:16.139Z,17.00
2024-02-07T13:48:03.842Z,13.90
2024-02-07T13:50:51.324Z,12.32
2024-02-07T13:53:38.575Z,16.15
2024-02-07T13:56:25.929Z,15.20
2024-02-07T13:59:13.237Z,17.13
2024-02-07T14:02:02.391Z,12.43
2024-02-07T14:04:49.949Z,13.82
2024-02-07T14:07:37.224Z,13.18
2024-02-07T14:10:24.562Z,13.50
2024-02-07T14:13:11.870Z,11.38
2024-02-07T14:15:59.238Z,12.77
2024-02-07T14:18:47.260Z,9.65
2024-02-07T14:21:34.568Z,13.93
2024-02-07T14:24:21.869Z,13.05
2024-02-07T14:27:12.459Z,14.48
2024-02-07T14:29:59.833Z,15.48
2024-02-07T14:32:47.330Z,14.90
2024-02-07T14:35:34.792Z,15.25
2024-02-07T14:38:23.862Z,10.98
2024-02-07T14:41:11.233Z,12.93
2024-02-07T14:43:58.547Z,10.55
2024-02-07T14:46:45.919Z,16.50
2024-02-07T14:49:33.305Z,12.85
2024-02-07T14:52:21.745Z,15.65
2024-02-07T14:55:11.544Z,16.85
2024-02-07T14:57:59.078Z,13.57
2024-02-07T15:00:46.289Z,17.05
2024-02-07T15:03:33.753Z,17.38
2024-02-07T15:06:21.393Z,15.43
2024-02-07T15:09:08.685Z,20.33
2024-02-07T15:11:56.924Z,16.23
2024-02-07T15:14:44.168Z,15.70
2024-02-07T15:17:31.349Z,13.32
2024-02-07T15:20:18.682Z,8.70
2024-02-07T15:23:06.174Z,13.02
2024-02-07T15:25:53.514Z,14.98
2024-02-07T15:28:40.855Z,17.75
2024-02-07T15:31:28.021Z,14.65
2024-02-07T15:34:15.507Z,12.75
2024-02-07T15:37:03.025Z,18.65
2024-02-07T15:39:50.232Z,13.68
2024-02-07T15:42:37.564Z,10.80
2024-02-07T15:45:24.951Z,13.88
2024-02-07T15:48:13.098Z,12.60
2024-02-07T15:51:00.625Z,19.02
2024-02-07T15:53:47.939Z,12.63
2024-02-07T15:56:36.730Z,17.90
2024-02-07T15:59:23.874Z,17.42
2024-02-07T16:02:11.132Z,14.02
2024-02-07T16:04:58.690Z,12.88
2024-02-07T16:07:46.155Z,11.80
2024-02-07T16:10:33.675Z,15.83
2024-02-07T16:13:20.877Z,13.25
2024-02-07T16:16:08.076Z,18.48
2024-02-07T16:18:55.952Z,14.15
2024-02-07T16:21:43.170Z,20.38
2024-02-07T16:24:32.563Z,12.95
2024-02-07T16:27:21.810Z,19.48
2024-02-07T16:30:10.710Z,20.95
2024-02-07T16:32:59.221Z,13.60
2024-02-07T16:35:46.603Z,16.90
2024-02-07T16:38:33.857Z,14.02
2024-02-07T16:41:21.094Z,15.32
2024-02-07T16:44:09.096Z,15.82
2024-02-07T16:46:56.884Z,9.98
2024-02-07T16:49:44.324Z,15.63
2024-02-07T16:52:31.496Z,14.20
2024-02-07T16:55:18.755Z,15.32
2024-02-07T16:58:07.361Z,12.50
2024-02-07T17:00:54.606Z,16.75
2024-02-07T17:03:41.853Z,13.98
2024-02-07T17:06:30.013Z,12.93
2024-02-07T17:09:17.227Z,15.93
2024-02-07T17:12:05.009Z,14.95
2024-02-07T17:14:52.195Z,13.23
2024-02-07T17:17:39.485Z,13.65
2024-02-07T17:20:26.847Z,16.92
2024-02-07T17:23:14.195Z,18.17
2024-02-07T17:26:01.712Z,16.20
2024-02-07T17:28:49.214Z,12.15
2024-02-07T17:31:36.566Z,17.63
2024-02-07T17:34:23.982Z,17.08
2024-02-07T17:37:11.208Z,16.30
2024-02-07T17:39:58.461Z,14.73
2024-02-07T17:42:46.707Z,15.55
2024-02-07T17:45:33.933Z,16.80
2024-02-07T17:48:21.218Z,15.50
2024-02-07T17:51:09.028Z,14.68
2024-02-07T17:53:56.645Z,22.35
2024-02-07T17:56:44.037Z,17.77
2024-02-07T17:59:31.269Z,17.23
2024-02-07T18:02:18.584Z,13.45
2024-02-07T18:05:06.631Z,13.98
2024-02-07T18:07:56.908Z,15.68
2024-02-07T18:10:44.406Z,16.45
2024-02-07T18:13:33.088Z,8.88
2024-02-07T18:16:21.585Z,14.80
2024-02-07T18:19:08.980Z,15.43
2024-02-07T18:21:56.257Z,14.52
2024-02-07T18:24:43.555Z,22.23
2024-02-07T18:27:30.702Z,21.23
2024-02-07T18:30:19.785Z,16.73
2024-02-07T18:33:08.719Z,17.35
2024-02-07T18:35:55.967Z,18.48
2024-02-07T18:38:44.439Z,14.63
2024-02-07T18:41:31.833Z,18.63
2024-02-07T18:44:20.401Z,17.67
2024-02-07T18:47:07.694Z,20.63
2024-02-07T18:49:55.951Z,16.38
2024-02-07T18:52:43.294Z,15.65
2024-02-07T18:55:30.769Z,13.25
2024-02-07T18:58:19.497Z,21.65
2024-02-07T19:01:06.915Z,11.10
2024-02-07T19:03:55.056Z,15.13
2024-02-07T19:06:42.758Z,20.23
2024-02-07T19:09:31.026Z,12.23
2024-02-07T19:12:18.605Z,12.68
2024-02-07T19:15:06.746Z,11.95
2024-02-07T19:17:54.547Z,16.77
2024-02-07T19:20:43.237Z,15.00
2024-02-07T19:23:30.593Z,15.18
2024-02-07T19:26:17.803Z,23.13
2024-02-07T19:29:05.096Z,18.83
2024-02-07T19:31:52.544Z,16.98
2024-02-07T19:34:39.905Z,14.32
2024-02-07T19:37:28.718Z,13.80
2024-02-07T19:40:16.167Z,16.92
2024-02-07T19:43:03.804Z,15.00
2024-02-07T19:45:51.083Z,17.67
2024-02-07T19:48:38.366Z,19.23
2024-02-07T19:51:25.736Z,22.88
2024-02-07T19:54:12.965Z,15.15
2024-02-07T19:57:00.484Z,30.17
2024-02-07T19:59:47.691Z,20.02
2024-02-07T20:02:36.006Z,22.45
2024-02-07T20:05:25.468Z,22.27
2024-02-07T20:08:13.917Z,17.73
2024-02-07T20:11:01.367Z,19.52
2024-02-07T20:13:49.112Z,17.90
2024-02-07T20:16:36.613Z,18.00
2024-02-07T20:19:24.629Z,20.15
2024-02-07T20:22:12.006Z,25.75
2024-02-07T20:24:59.231Z,21.95
2024-02-07T20:27:46.485Z,23.33
2024-02-07T20:30:33.685Z,16.05
2024-02-07T20:33:20.920Z,21.17
2024-02-07T20:36:08.655Z,23.27
2024-02-07T20:38:56.191Z,19.45
2024-02-07T20:41:45.405Z,20.27
2024-02-07T20:44:32.876Z,25.20
2024-02-07T20:47:20.021Z,17.77
2024-02-07T20:50:08.136Z,36.03
2024-02-07T20:52:56.553Z,31.60
2024-02-07T20:55:45.611Z,37.10
2024-02-07T20:58:33.048Z,32.95
2024-02-07T21:01:20.879Z,29.80
2024-02-07T21:04:08.312Z,25.33
2024-02-07T21:06:55.731Z,23.23
2024-02-07T21:09:43.015Z,22.33
2024-02-07T21:12:30.192Z,22.60
2024-02-07T21:15:20.073Z,26.08
2024-02-07T21:18:07.664Z,27.88
2024-02-07T21:20:54.862Z,24.60
2024-02-07T21:23:42.898Z,21.48
2024-02-07T21:26:30.038Z,21.58
2024-02-07T21:29:18.760Z,35.63
2024-02-07T21:32:10.632Z,27.83
2024-02-07T21:34:58.080Z,32.08
2024-02-07T21:37:45.912Z,29.30
2024-02-07T21:40:33.190Z,32.97
2024-02-07T21:43:20.567Z,27.88
2024-02-07T21:46:09.028Z,28.80
2024-02-07T21:48:56.264Z,34.25
2024-02-07T21:51:43.582Z,32.50
2024-02-07T21:54:30.853Z,28.23
2024-02-07T21:57:18.920Z,26.38
2024-02-07T22:00:07.343Z,19.13
2024-02-07T22:02:54.618Z,28.40
2024-02-07T22:05:41.906Z,26.70
2024-02-07T22:08:29.185Z,24.98
2024-02-07T22:11:16.825Z,26.73
2024-02-07T22:14:07.131Z,27.27
2024-02-07T22:16:54.458Z,26.30
2024-02-07T22:19:43.445Z,28.88
2024-02-07T22:22:31.265Z,26.13
2024-02-07T22:25:18.572Z,27.58
2024-02-07T22:28:07.142Z,35.97
2024-02-07T22:30:54.410Z,37.47
2024-02-07T22:33:41.556Z,32.78
2024-02-07T22:36:28.802Z,27.45
2024-02-07T22:39:16.365Z,24.15
2024-02-07T22:42:06.258Z,24.13
2024-02-07T22:44:53.486Z,24.25
2024-02-07T22:47:40.955Z,29.65
2024-02-07T22:50:28.343Z,22.63
2024-02-07T22:53:15.603Z,21.92
2024-02-07T22:56:03.296Z,21.80
2024-02-07T22:58:50.595Z,27.40
2024-02-07T23:01:37.836Z,17.55
2024-02-07T23:04:25.116Z,23.42
2024-02-07T23:07:12.716Z,20.60
2024-02-07T23:09:59.856Z,31.63
2024-02-07T23:12:46.997Z,25.13
2024-02-07T23:15:34.143Z,24.50
2024-02-07T23:18:21.726Z,26.10
2024-02-07T23:21:08.947Z,30.77
2024-02-07T23:23:56.112Z,24.63
2024-02-07T23:26:45.972Z,24.52
2024-02-07T23:29:33.403Z,19.27
2024-02-07T23:32:20.735Z,20.83
2024-02-07T23:35:08.560Z,21.33
2024-02-07T23:37:55.796Z,20.15
2024-02-07T23:40:43.188Z,26.33
2024-02-07T23:43:30.411Z,22.63
2024-02-07T23:46:17.590Z,21.88
2024-02-07T23:49:04.924Z,26.92
2024-02-07T23:51:53.256Z,21.42
2024-02-07T23:54:40.414Z,22.02
2024-02-07T23:57:27.797Z,23.33
